createdAt,value
2023-02-21T00:02:43.562Z,7.70
2023-02-21T00:05:28.797Z,7.66
2023-02-21T00:08:16.175Z,7.67
2023-02-21T00:11:01.273Z,7.67
2023-02-21T00:13:47.250Z,7.67
2023-02-21T00:16:35.039Z,7.68
2023-02-21T00:19:20.576Z,7.64
2023-02-21T00:22:05.867Z,7.58
2023-02-21T00:24:52.847Z,7.56
2023-02-21T00:27:38.277Z,7.60
2023-02-21T00:30:24.037Z,7.58
2023-02-21T00:33:09.664Z,7.54
2023-02-21T00:35:55.997Z,7.47
2023-02-21T00:38:41.456Z,7.36
2023-02-21T00:41:27.795Z,7.38
2023-02-21T00:44:14.172Z,7.37
2023-02-21T00:46:59.760Z,7.38
2023-02-21T00:49:45.414Z,7.45
2023-02-21T00:52:31.237Z,7.48
2023-02-21T00:55:16.465Z,7.46
2023-02-21T00:58:03.329Z,7.51
2023-02-21T01:00:48.412Z,7.43
2023-02-21T01:03:33.593Z,7.40
2023-02-21T01:06:18.873Z,7.44
2023-02-21T01:09:06.049Z,7.48
2023-02-21T01:11:51.820Z,7.44
2023-02-21T01:14:38.746Z,7.42
2023-02-21T01:17:24.433Z,7.47
2023-02-21T01:20:10.427Z,7.47
2023-02-21T01:22:57.799Z,7.52
2023-02-21T01:25:43.151Z,7.52
2023-02-21T01:28:28.745Z,7.55
2023-02-21T01:31:15.531Z,7.58
2023-02-21T01:34:01.036Z,7.57
2023-02-21T01:36:46.232Z,7.56
2023-02-21T01:39:32.894Z,7.54
2023-02-21T01:42:19.334Z,7.55
2023-02-21T01:45:07.900Z,7.57
2023-02-21T01:47:54.541Z,7.58
2023-02-21T01:50:43.799Z,7.58
2023-02-21T01:53:33.716Z,7.62
2023-02-21T01:56:19.905Z,7.64
2023-02-21T01:59:09.016Z,7.59
2023-02-21T02:02:03.422Z,7.63
2023-02-21T02:04:52.577Z,7.59
2023-02-21T02:07:39.156Z,7.55
2023-02-21T02:10:28.191Z,7.57
2023-02-21T02:13:12.830Z,7.59
2023-02-21T02:15:54.266Z,7.63
2023-02-21T02:18:46.952Z,7.66
2023-02-21T02:21:55.596Z,7.59
2023-02-21T02:24:44.717Z,7.65
2023-02-21T02:27:39.358Z,7.67
2023-02-21T02:30:41.689Z,7.72
2023-02-21T02:33:43.171Z,7.66
2023-02-21T02:36:16.290Z,7.57
2023-02-21T02:38:54.362Z,7.61
2023-02-21T02:41:32.702Z,7.65
2023-02-21T02:44:07.378Z,7.63
2023-02-21T02:46:39.467Z,7.63
2023-02-21T02:49:11.828Z,7.63
2023-02-21T02:51:41.290Z,7.63
2023-02-21T02:54:11.221Z,7.65
2023-02-21T02:56:39.230Z,7.70
2023-02-21T02:59:10.127Z,7.65
2023-02-21T03:01:58.230Z,7.67
2023-02-21T03:04:49.957Z,7.71
2023-02-21T03:07:27.313Z,7.73
2023-02-21T03:10:10.983Z,7.76
2023-02-21T03:12:45.116Z,7.75
2023-02-21T03:15:19.920Z,7.69
2023-02-21T03:17:52.733Z,7.66
2023-02-21T03:20:22.136Z,7.65
2023-02-21T03:22:53.402Z,7.64
2023-02-21T03:25:23.826Z,7.63
2023-02-21T03:27:56.348Z,7.62
2023-02-21T03:30:27.456Z,7.61
2023-02-21T03:32:57.017Z,7.62
2023-02-21T03:35:30.363Z,7.64
2023-02-21T03:38:01.252Z,7.67
2023-02-21T03:40:31.692Z,7.68
2023-02-21T03:43:03.430Z,7.66
2023-02-21T03:45:36.052Z,7.69
2023-02-21T03:48:12.482Z,7.73
2023-02-21T03:50:42.303Z,7.73
2023-02-21T03:53:12.413Z,7.70
2023-02-21T03:55:44.554Z,7.70
2023-02-21T03:58:19.349Z,7.71
2023-02-21T04:00:47.787Z,7.74
2023-02-21T04:03:18.741Z,7.71
2023-02-21T04:05:56.191Z,7.63
2023-02-21T04:08:25.838Z,7.57
2023-02-21T04:10:53.794Z,7.59
2023-02-21T04:13:26.137Z,7.57
2023-02-21T04:15:56.012Z,7.55
2023-02-21T04:18:24.835Z,7.53
2023-02-21T04:20:54.793Z,7.46
2023-02-21T04:23:24.803Z,7.53
2023-02-21T04:25:53.314Z,7.54
2023-02-21T04:28:28.296Z,7.57
2023-02-21T04:30:56.618Z,7.57
2023-02-21T04:33:25.709Z,7.57
2023-02-21T04:35:53.596Z,7.59
2023-02-21T04:38:37.652Z,7.51
2023-02-21T04:41:06.362Z,7.47
2023-02-21T04:43:34.417Z,7.46
2023-02-21T04:46:02.419Z,7.49
2023-02-21T04:48:30.396Z,7.42
2023-02-21T04:51:13.525Z,7.48
2023-02-21T04:53:44.306Z,7.51
2023-02-21T04:56:12.699Z,7.46
2023-02-21T04:58:45.361Z,7.47
2023-02-21T05:01:14.542Z,7.48
2023-02-21T05:03:42.671Z,7.55
2023-02-21T05:06:10.836Z,7.58
2023-02-21T05:08:38.703Z,7.54
2023-02-21T05:11:08.768Z,7.58
2023-02-21T05:13:36.637Z,7.54
2023-02-21T05:16:04.539Z,7.49
2023-02-21T05:18:34.466Z,7.49
2023-02-21T05:21:03.434Z,7.51
2023-02-21T05:23:38.407Z,7.52
2023-02-21T05:26:09.971Z,7.49
2023-02-21T05:28:38.916Z,7.52
2023-02-21T05:31:07.787Z,7.52
2023-02-21T05:33:35.765Z,7.46
2023-02-21T05:36:03.965Z,7.43
2023-02-21T05:38:31.827Z,7.41
2023-02-21T05:40:59.853Z,7.46
2023-02-21T05:43:33.686Z,7.48
2023-02-21T05:46:02.013Z,7.51
2023-02-21T05:48:30.054Z,7.54
2023-02-21T05:50:57.985Z,7.51
2023-02-21T05:53:25.905Z,7.50
2023-02-21T05:55:53.787Z,7.51
2023-02-21T05:58:21.604Z,7.54
2023-02-21T06:00:52.597Z,7.50
2023-02-21T06:03:20.877Z,7.43
2023-02-21T06:05:48.729Z,7.47
2023-02-21T06:08:16.562Z,7.40
2023-02-21T06:10:44.374Z,7.37
2023-02-21T06:13:12.232Z,7.39
2023-02-21T06:15:40.153Z,7.40
2023-02-21T06:18:09.975Z,7.40
2023-02-21T06:20:37.949Z,7.37
2023-02-21T06:23:05.881Z,7.39
2023-02-21T06:25:33.787Z,7.33
2023-02-21T06:28:01.944Z,7.28
2023-02-21T06:30:29.915Z,7.21
2023-02-21T06:32:57.798Z,7.22
2023-02-21T06:35:27.111Z,7.17
2023-02-21T06:37:55.065Z,7.17
2023-02-21T06:40:22.941Z,7.15
2023-02-21T06:42:50.909Z,7.19
2023-02-21T06:45:19.017Z,7.25
2023-02-21T06:47:46.969Z,7.23
2023-02-21T06:50:15.390Z,7.23
2023-02-21T06:52:44.682Z,7.21
2023-02-21T06:55:12.539Z,7.26
2023-02-21T06:57:40.646Z,7.13
2023-02-21T07:00:09.821Z,7.18
2023-02-21T07:02:38.756Z,7.03
2023-02-21T07:05:07.829Z,7.09
2023-02-21T07:07:35.706Z,7.04
2023-02-21T07:10:06.056Z,7.01
2023-02-21T07:12:34.508Z,7.02
2023-02-21T07:15:02.349Z,7.08
2023-02-21T07:17:30.389Z,7.12
2023-02-21T07:19:58.358Z,7.16
2023-02-21T07:22:26.634Z,7.16
2023-02-21T07:24:55.097Z,7.20
2023-02-21T07:27:24.832Z,7.23
2023-02-21T07:29:52.790Z,7.25
2023-02-21T07:32:21.929Z,7.30
2023-02-21T07:34:50.336Z,7.34
2023-02-21T07:37:18.308Z,7.40
2023-02-21T07:39:46.273Z,7.28
2023-02-21T07:42:14.549Z,7.34
2023-02-21T07:44:48.089Z,7.43
2023-02-21T07:47:16.170Z,7.45
2023-02-21T07:49:44.043Z,7.36
2023-02-21T07:52:12.103Z,7.41
2023-02-21T07:54:40.090Z,7.40
2023-02-21T07:57:08.071Z,7.28
2023-02-21T07:59:35.913Z,7.41
2023-02-21T08:02:05.669Z,7.69
2023-02-21T08:04:33.757Z,7.73
2023-02-21T08:07:02.666Z,7.69
2023-02-21T08:09:30.555Z,7.65
2023-02-21T08:11:58.379Z,7.62
2023-02-21T08:14:26.294Z,7.57
2023-02-21T08:16:54.246Z,7.67
2023-02-21T08:19:23.924Z,7.61
2023-02-21T08:21:52.046Z,7.62
2023-02-21T08:24:20.624Z,7.80
2023-02-21T08:26:48.692Z,7.87
2023-02-21T08:29:18.204Z,7.95
2023-02-21T08:31:46.458Z,8.06
2023-02-21T08:34:15.183Z,8.09
2023-02-21T08:36:45.020Z,8.02
2023-02-21T08:39:12.964Z,7.98
2023-02-21T08:41:43.309Z,7.96
2023-02-21T08:44:12.345Z,7.86
2023-02-21T08:46:40.786Z,7.89
2023-02-21T08:49:09.622Z,7.99
2023-02-21T08:51:37.865Z,7.97
2023-02-21T08:54:08.066Z,8.09
2023-02-21T08:56:35.934Z,8.15
2023-02-21T08:59:05.845Z,8.07
2023-02-21T09:01:35.429Z,8.18
2023-02-21T09:04:05.245Z,8.14
2023-02-21T09:06:33.474Z,8.24
2023-02-21T09:09:01.793Z,8.31
2023-02-21T09:11:31.088Z,8.36
2023-02-21T09:13:59.017Z,8.47
2023-02-21T09:16:26.957Z,8.52
2023-02-21T09:18:56.982Z,8.69
2023-02-21T09:21:24.973Z,8.71
2023-02-21T09:23:54.920Z,8.89
2023-02-21T09:26:25.059Z,8.81
2023-02-21T09:28:54.340Z,8.92
2023-02-21T09:31:22.704Z,8.94
2023-02-21T09:33:50.686Z,9.05
2023-02-21T09:36:23.569Z,9.16
2023-02-21T09:38:52.286Z,9.19
2023-02-21T09:41:21.864Z,9.07
2023-02-21T09:43:52.591Z,9.03
2023-02-21T09:46:31.156Z,9.08
2023-02-21T09:48:59.960Z,9.16
2023-02-21T09:51:28.104Z,9.14
2023-02-21T09:53:59.574Z,9.16
2023-02-21T09:56:31.000Z,9.15
2023-02-21T09:58:59.912Z,9.15
2023-02-21T10:01:45.063Z,9.37
2023-02-21T10:04:25.872Z,9.48
2023-02-21T10:06:59.806Z,9.58
2023-02-21T10:09:39.580Z,9.69
2023-02-21T10:12:19.103Z,9.75
2023-02-21T10:15:03.617Z,9.64
2023-02-21T10:17:37.457Z,9.62
2023-02-21T10:20:12.654Z,9.68
2023-02-21T10:22:46.332Z,9.83
2023-02-21T10:25:24.070Z,9.97
2023-02-21T10:27:54.329Z,9.89
2023-02-21T10:30:29.248Z,10.00
2023-02-21T10:32:58.851Z,10.15
2023-02-21T10:35:27.221Z,10.38
2023-02-21T10:37:57.960Z,10.69
2023-02-21T10:40:34.643Z,10.72
2023-02-21T10:43:08.508Z,10.66
2023-02-21T10:45:41.447Z,10.72
2023-02-21T10:48:12.175Z,10.83
2023-02-21T10:50:50.169Z,11.13
2023-02-21T10:53:27.771Z,10.84
2023-02-21T10:56:23.816Z,11.04
2023-02-21T10:58:55.393Z,10.72
2023-02-21T11:01:31.794Z,10.88
2023-02-21T11:04:04.129Z,10.88
2023-02-21T11:06:36.954Z,10.84
2023-02-21T11:09:31.146Z,11.31
2023-02-21T11:12:05.096Z,11.20
2023-02-21T11:14:34.449Z,11.51
2023-02-21T11:17:16.864Z,12.09
2023-02-21T11:19:49.939Z,12.25
2023-02-21T11:22:21.722Z,12.89
2023-02-21T11:25:00.889Z,12.81
2023-02-21T11:27:32.987Z,13.68
2023-02-21T11:30:03.762Z,14.62
2023-02-21T11:32:36.026Z,14.16
2023-02-21T11:35:10.159Z,14.56
2023-02-21T11:37:51.064Z,14.78
2023-02-21T11:40:29.393Z,14.78
2023-02-21T11:43:22.249Z,14.85
2023-02-21T11:46:03.119Z,14.85
2023-02-21T11:48:36.806Z,14.81
2023-02-21T11:51:15.063Z,14.75
2023-02-21T11:53:44.971Z,14.44
2023-02-21T11:56:21.211Z,14.66
2023-02-21T11:58:59.746Z,14.18
2023-02-21T12:01:32.385Z,14.95
2023-02-21T12:04:11.849Z,15.43
2023-02-21T12:06:49.043Z,15.20
2023-02-21T12:09:26.804Z,15.24
2023-02-21T12:12:07.947Z,15.82
2023-02-21T12:14:48.821Z,15.49
2023-02-21T12:17:47.013Z,16.20
2023-02-21T12:20:34.177Z,15.95
2023-02-21T12:23:16.732Z,16.13
2023-02-21T12:26:28.626Z,16.60
2023-02-21T12:29:21.897Z,16.41
2023-02-21T12:32:03.597Z,15.60
2023-02-21T12:34:47.743Z,15.30
2023-02-21T12:37:24.744Z,15.62
2023-02-21T12:40:13.113Z,15.62
2023-02-21T12:42:52.470Z,15.52
2023-02-21T12:45:38.461Z,15.82
2023-02-21T12:48:13.596Z,15.67
2023-02-21T12:50:44.871Z,15.94
2023-02-21T12:53:17.457Z,16.14
2023-02-21T12:55:52.729Z,15.89
2023-02-21T12:58:25.123Z,16.10
2023-02-21T13:00:57.058Z,15.40
2023-02-21T13:03:37.413Z,15.54
2023-02-21T13:06:11.276Z,15.55
2023-02-21T13:08:52.071Z,15.91
2023-02-21T13:11:28.442Z,16.24
2023-02-21T13:13:57.443Z,16.06
2023-02-21T13:16:26.867Z,15.85
2023-02-21T13:19:00.297Z,15.84
2023-02-21T13:21:45.624Z,15.60
2023-02-21T13:24:42.902Z,15.97
2023-02-21T13:27:40.794Z,15.86
2023-02-21T13:30:15.920Z,15.49
2023-02-21T13:32:53.909Z,15.55
2023-02-21T13:35:27.976Z,15.84
2023-02-21T13:37:56.921Z,15.83
2023-02-21T13:40:32.821Z,15.85
2023-02-21T13:43:11.932Z,16.32
2023-02-21T13:45:40.407Z,16.45
2023-02-21T13:48:29.355Z,16.09
2023-02-21T13:50:59.037Z,16.20
2023-02-21T13:53:33.810Z,16.18
2023-02-21T13:56:19.135Z,16.20
2023-02-21T13:58:49.703Z,16.42
2023-02-21T14:01:26.794Z,16.24
2023-02-21T14:03:58.865Z,15.89
2023-02-21T14:06:34.769Z,15.71
2023-02-21T14:09:14.376Z,16.10
2023-02-21T14:11:48.130Z,15.60
2023-02-21T14:14:27.216Z,15.67
2023-02-21T14:17:02.267Z,15.82
2023-02-21T14:19:36.802Z,15.31
2023-02-21T14:22:11.636Z,15.36
2023-02-21T14:24:43.363Z,15.33
2023-02-21T14:27:34.956Z,15.69
2023-02-21T14:30:33.955Z,15.84
2023-02-21T14:33:19.234Z,15.60
2023-02-21T14:35:49.466Z,15.74
2023-02-21T14:38:22.466Z,15.16
2023-02-21T14:41:04.959Z,14.91
2023-02-21T14:43:56.126Z,15.11
2023-02-21T14:46:48.105Z,15.00
2023-02-21T14:49:55.634Z,14.92
2023-02-21T14:52:38.868Z,14.94
2023-02-21T14:55:27.193Z,14.82
2023-02-21T14:58:30.678Z,14.82
2023-02-21T15:01:09.446Z,14.67
2023-02-21T15:03:45.561Z,14.65
2023-02-21T15:06:21.089Z,14.73
2023-02-21T15:08:51.085Z,14.45
2023-02-21T15:11:26.308Z,14.33
2023-02-21T15:14:09.004Z,14.08
2023-02-21T15:16:45.472Z,14.14
2023-02-21T15:19:25.185Z,13.93
2023-02-21T15:22:17.448Z,13.87
2023-02-21T15:25:12.338Z,13.82
2023-02-21T15:27:53.525Z,13.71
2023-02-21T15:30:24.901Z,13.65
2023-02-21T15:32:59.926Z,13.40
2023-02-21T15:35:33.595Z,13.37
2023-02-21T15:38:04.574Z,13.09
2023-02-21T15:40:32.783Z,13.04
2023-02-21T15:43:02.167Z,13.00
2023-02-21T15:45:34.483Z,13.08
2023-02-21T15:48:03.413Z,13.05
2023-02-21T15:50:36.988Z,12.94
2023-02-21T15:53:17.086Z,12.73
2023-02-21T15:55:46.007Z,12.76
2023-02-21T15:58:18.012Z,12.65
2023-02-21T16:00:47.395Z,12.69
2023-02-21T16:03:50.430Z,12.58
2023-02-21T16:06:23.694Z,12.43
2023-02-21T16:08:58.947Z,12.32
2023-02-21T16:11:39.662Z,12.22
2023-02-21T16:14:08.517Z,12.22
2023-02-21T16:16:37.014Z,12.11
2023-02-21T16:19:05.076Z,11.97
2023-02-21T16:21:35.313Z,11.81
2023-02-21T16:24:17.047Z,11.61
2023-02-21T16:27:03.185Z,11.59
2023-02-21T16:29:31.071Z,11.56
2023-02-21T16:31:59.175Z,11.40
2023-02-21T16:34:29.874Z,11.44
2023-02-21T16:37:05.650Z,11.26
2023-02-21T16:39:33.341Z,11.33
2023-02-21T16:42:01.774Z,11.11
2023-02-21T16:44:30.054Z,11.06
2023-02-21T16:46:57.969Z,10.95
2023-02-21T16:49:26.064Z,10.94
2023-02-21T16:51:54.445Z,10.68
2023-02-21T16:54:23.784Z,10.59
2023-02-21T16:56:54.452Z,10.64
2023-02-21T16:59:25.547Z,10.55
2023-02-21T17:01:53.582Z,10.51
2023-02-21T17:04:25.159Z,10.37
2023-02-21T17:06:55.822Z,10.25
2023-02-21T17:09:27.684Z,10.04
2023-02-21T17:11:56.146Z,10.01
2023-02-21T17:14:24.042Z,9.83
2023-02-21T17:16:51.906Z,9.71
2023-02-21T17:19:21.706Z,9.72
2023-02-21T17:21:50.711Z,9.58
2023-02-21T17:24:20.028Z,9.54
2023-02-21T17:26:49.299Z,9.48
2023-02-21T17:29:17.213Z,9.40
2023-02-21T17:31:45.181Z,9.46
2023-02-21T17:34:14.020Z,9.28
2023-02-21T17:36:42.056Z,9.12
2023-02-21T17:39:10.871Z,9.17
2023-02-21T17:41:45.790Z,9.12
2023-02-21T17:44:15.959Z,9.05
2023-02-21T17:46:48.394Z,8.98
2023-02-21T17:49:18.693Z,9.01
2023-02-21T17:51:47.648Z,9.02
2023-02-21T17:54:16.366Z,8.96
2023-02-21T17:56:44.402Z,8.95
2023-02-21T17:59:13.010Z,8.81
2023-02-21T18:01:42.974Z,8.70
2023-02-21T18:04:13.607Z,8.71
2023-02-21T18:06:42.037Z,8.64
2023-02-21T18:09:11.016Z,8.55
2023-02-21T18:11:39.055Z,8.60
2023-02-21T18:14:07.002Z,8.61
2023-02-21T18:16:34.950Z,8.53
2023-02-21T18:19:04.266Z,8.49
2023-02-21T18:21:32.186Z,8.48
2023-02-21T18:24:00.346Z,8.57
2023-02-21T18:26:28.280Z,8.56
2023-02-21T18:28:56.253Z,8.48
2023-02-21T18:31:24.357Z,8.41
2023-02-21T18:33:52.322Z,8.36
2023-02-21T18:36:21.555Z,8.41
2023-02-21T18:38:49.598Z,8.49
2023-02-21T18:41:20.311Z,8.41
2023-02-21T18:43:48.278Z,8.26
2023-02-21T18:46:19.141Z,8.27
2023-02-21T18:48:48.858Z,8.26
2023-02-21T18:51:20.054Z,8.20
2023-02-21T18:53:49.973Z,8.21
2023-02-21T18:56:20.806Z,8.23
2023-02-21T18:58:49.681Z,8.25
2023-02-21T19:01:20.766Z,8.14
2023-02-21T19:03:51.793Z,7.99
2023-02-21T19:06:21.161Z,7.94
2023-02-21T19:08:51.037Z,7.88
2023-02-21T19:11:19.241Z,7.94
2023-02-21T19:13:50.312Z,7.92
2023-02-21T19:16:20.615Z,7.92
2023-02-21T19:18:51.390Z,7.91
2023-02-21T19:21:19.333Z,7.96
2023-02-21T19:23:47.680Z,7.97
2023-02-21T19:26:17.096Z,7.94
2023-02-21T19:28:45.598Z,7.76
2023-02-21T19:31:15.131Z,7.72
2023-02-21T19:33:44.822Z,7.74
2023-02-21T19:36:13.363Z,7.66
2023-02-21T19:38:41.410Z,7.57
2023-02-21T19:41:09.944Z,7.44
2023-02-21T19:43:39.225Z,7.49
2023-02-21T19:46:07.394Z,7.49
2023-02-21T19:48:35.346Z,7.45
2023-02-21T19:51:03.409Z,7.40
2023-02-21T19:53:31.424Z,7.31
2023-02-21T19:55:59.367Z,7.15
2023-02-21T19:58:27.212Z,7.05
2023-02-21T20:00:56.649Z,6.97
2023-02-21T20:03:24.594Z,6.90
2023-02-21T20:05:52.630Z,6.97
2023-02-21T20:08:20.709Z,6.85
2023-02-21T20:10:49.092Z,6.61
2023-02-21T20:13:17.083Z,6.49
2023-02-21T20:15:45.452Z,6.62
2023-02-21T20:18:15.609Z,6.60
2023-02-21T20:20:43.822Z,6.54
2023-02-21T20:23:13.956Z,6.40
2023-02-21T20:25:41.850Z,6.27
2023-02-21T20:28:09.753Z,6.27
2023-02-21T20:30:38.467Z,6.23
2023-02-21T20:33:06.842Z,6.28
2023-02-21T20:35:36.431Z,6.25
2023-02-21T20:38:05.825Z,6.24
2023-02-21T20:40:33.830Z,6.24
2023-02-21T20:43:02.514Z,6.34
2023-02-21T20:45:30.532Z,6.36
2023-02-21T20:47:58.546Z,6.43
2023-02-21T20:50:26.531Z,6.34
2023-02-21T20:52:55.800Z,6.42
2023-02-21T20:55:25.157Z,6.33
2023-02-21T20:57:53.099Z,6.34
2023-02-21T21:00:23.553Z,6.40
2023-02-21T21:02:51.778Z,6.41
2023-02-21T21:05:21.133Z,6.48
2023-02-21T21:07:49.466Z,6.38
2023-02-21T21:10:19.306Z,6.44
2023-02-21T21:12:49.426Z,6.47
2023-02-21T21:15:18.062Z,6.57
2023-02-21T21:17:46.589Z,6.56
2023-02-21T21:20:17.763Z,6.57
2023-02-21T21:22:46.451Z,6.53
2023-02-21T21:25:14.988Z,6.42
2023-02-21T21:27:45.202Z,6.22
2023-02-21T21:30:18.115Z,6.15
2023-02-21T21:32:46.883Z,6.23
2023-02-21T21:35:17.661Z,6.19
2023-02-21T21:37:45.479Z,6.12
2023-02-21T21:40:16.857Z,6.17
2023-02-21T21:42:48.982Z,6.20
2023-02-21T21:45:23.908Z,6.31
2023-02-21T21:47:53.853Z,6.18
2023-02-21T21:50:22.816Z,6.19
2023-02-21T21:52:52.688Z,6.14
2023-02-21T21:55:24.349Z,6.07
2023-02-21T21:57:54.910Z,6.05
2023-02-21T22:00:26.014Z,6.06
2023-02-21T22:02:57.419Z,6.03
2023-02-21T22:05:26.081Z,5.85
2023-02-21T22:07:54.240Z,5.83
2023-02-21T22:10:23.962Z,5.76
2023-02-21T22:12:55.983Z,5.80
2023-02-21T22:15:26.725Z,5.65
2023-02-21T22:17:55.270Z,5.46
2023-02-21T22:20:31.259Z,5.51
2023-02-21T22:23:00.075Z,5.58
2023-02-21T22:25:30.369Z,5.66
2023-02-21T22:28:03.831Z,5.58
2023-02-21T22:30:31.874Z,5.66
2023-02-21T22:32:59.902Z,5.67
2023-02-21T22:35:28.569Z,5.74
2023-02-21T22:38:01.934Z,5.77
2023-02-21T22:40:31.097Z,5.62
2023-02-21T22:43:02.902Z,5.62
2023-02-21T22:45:33.152Z,5.72
2023-02-21T22:48:03.321Z,5.64
2023-02-21T22:50:36.929Z,5.70
2023-02-21T22:53:08.243Z,5.67
2023-02-21T22:55:38.118Z,5.67
2023-02-21T22:58:09.976Z,5.73
2023-02-21T23:00:39.228Z,5.76
2023-02-21T23:03:13.074Z,5.85
2023-02-21T23:05:43.564Z,5.87
2023-02-21T23:08:12.873Z,5.82
2023-02-21T23:10:42.458Z,5.69
2023-02-21T23:13:14.175Z,5.75
2023-02-21T23:15:43.180Z,5.79
2023-02-21T23:18:13.051Z,5.78
2023-02-21T23:20:44.736Z,5.80
2023-02-21T23:23:14.058Z,5.68
2023-02-21T23:25:41.897Z,5.59
2023-02-21T23:28:14.422Z,5.62
2023-02-21T23:30:43.887Z,5.54
2023-02-21T23:33:15.664Z,5.55
2023-02-21T23:35:44.324Z,5.51
2023-02-21T23:38:15.532Z,5.45
2023-02-21T23:40:44.716Z,5.50
2023-02-21T23:43:19.182Z,5.60
2023-02-21T23:45:48.243Z,5.56
2023-02-21T23:48:16.491Z,5.45
2023-02-21T23:50:46.491Z,5.36
2023-02-21T23:53:16.125Z,5.43
2023-02-21T23:55:46.787Z,5.48
2023-02-21T23:58:19.712Z,5.43
